Time;durP1;ratioP1;P1;durP2;ratioP2;P2;SDS_P1;SDS_P2;PMS_P1;PMS_P2;Temp;Humidity;BMP_temperature;BMP_pressure;BME280_temperature;BME280_humidity;BME280_pressure;Samples;Min_cycle;Max_cycle;Signal;HPM_P1;HPM_P2
2022/03/19 00:00:59;;;;;;;10.53;9.37;;;7.00;99.90;;;;;;5051561;28;20179;-65
2022/03/19 00:03:25;;;;;;;9.87;9.10;;;7.00;99.90;;;;;;5051476;28;20270;-65
2022/03/19 00:05:51;;;;;;;10.40;9.30;;;7.00;99.90;;;;;;5050895;28;20179;-64
2022/03/19 00:08:17;;;;;;;11.60;10.30;;;6.90;99.90;;;;;;5051819;28;20244;-65
2022/03/19 00:10:43;;;;;;;10.60;9.57;;;6.90;99.90;;;;;;5049730;28;20688;-65
2022/03/19 00:13:15;;;;;;;10.87;9.97;;;6.90;99.90;;;;;;5051402;28;20194;-64
2022/03/19 00:15:41;;;;;;;11.03;10.23;;;6.90;99.90;;;;;;5050920;28;20277;-65
2022/03/19 00:18:07;;;;;;;10.00;9.03;;;6.80;99.90;;;;;;5051768;28;20171;-65
2022/03/19 00:20:36;;;;;;;11.13;9.93;;;6.70;99.90;;;;;;5051058;28;20190;-65
2022/03/19 00:23:02;;;;;;;10.73;9.63;;;6.60;99.90;;;;;;5051501;28;20243;-65
2022/03/19 00:25:27;;;;;;;11.97;10.70;;;6.50;99.90;;;;;;5050864;28;20190;-65
2022/03/19 00:27:53;;;;;;;12.00;10.67;;;6.40;99.90;;;;;;5051157;28;20194;-65
2022/03/19 00:30:19;;;;;;;14.30;10.87;;;6.30;99.90;;;;;;5051360;28;20174;-66
2022/03/19 00:32:45;;;;;;;13.63;9.67;;;6.30;99.90;;;;;;5051148;28;20187;-65
2022/03/19 00:35:12;;;;;;;12.40;9.83;;;6.30;99.90;;;;;;5051086;28;20248;-65
2022/03/19 00:37:48;;;;;;;11.00;10.10;;;6.30;99.90;;;;;;5050336;28;20260;-64
2022/03/19 00:40:16;;;;;;;11.23;10.33;;;6.30;99.90;;;;;;5051045;28;20182;-65
2022/03/19 00:42:43;;;;;;;11.57;10.47;;;6.30;99.90;;;;;;5050806;28;20209;-66
2022/03/19 00:45:10;;;;;;;12.47;11.33;;;6.30;99.90;;;;;;5050915;28;20593;-63
2022/03/19 00:47:36;;;;;;;11.83;10.70;;;6.40;99.90;;;;;;5050966;28;20175;-65
2022/03/19 00:50:03;;;;;;;11.37;10.30;;;6.40;99.90;;;;;;5051363;28;20692;-66
2022/03/19 00:52:29;;;;;;;12.90;10.73;;;6.40;99.90;;;;;;5050814;28;20238;-66
2022/03/19 00:54:54;;;;;;;14.50;10.40;;;6.50;99.90;;;;;;5050682;28;20603;-66
2022/03/19 00:57:20;;;;;;;13.17;10.60;;;6.50;99.90;;;;;;5029490;28;20202;-66
2022/03/19 00:59:46;;;;;;;11.90;10.50;;;6.50;99.90;;;;;;5030894;28;20175;-66
2022/03/19 01:02:11;;;;;;;11.67;10.47;;;6.50;99.90;;;;;;5047871;28;20183;-64
2022/03/19 01:04:37;;;;;;;11.87;10.77;;;6.50;99.90;;;;;;5050943;28;20179;-65
2022/03/19 01:07:03;;;;;;;11.30;10.17;;;6.40;99.90;;;;;;5050780;28;20249;-65
2022/03/19 01:09:28;;;;;;;11.57;10.43;;;6.40;99.90;;;;;;5050653;28;20174;-66
2022/03/19 01:11:54;;;;;;;10.73;9.77;;;6.30;99.90;;;;;;5050328;28;20210;-66
2022/03/19 01:14:20;;;;;;;11.20;10.20;;;6.30;99.90;;;;;;5050861;28;20266;-66
2022/03/19 01:16:46;;;;;;;11.23;10.33;;;6.30;99.90;;;;;;5050063;28;20186;-65
2022/03/19 01:19:12;;;;;;;12.13;10.93;;;6.20;99.90;;;;;;5051334;28;20699;-66
2022/03/19 01:21:37;;;;;;;12.63;11.07;;;6.10;99.90;;;;;;5052754;28;20678;-67
2022/03/19 01:24:04;;;;;;;11.50;10.40;;;6.00;99.90;;;;;;5054436;28;20235;-66
2022/03/19 01:26:29;;;;;;;11.07;10.07;;;5.90;99.90;;;;;;5054085;28;20171;-66
2022/03/19 01:28:55;;;;;;;13.23;11.03;;;5.80;99.90;;;;;;5054334;28;20269;-65
2022/03/19 01:31:25;;;;;;;12.67;11.47;;;5.80;99.90;;;;;;5054048;28;20203;-66
2022/03/19 01:33:54;;;;;;;12.97;11.77;;;5.70;99.90;;;;;;5054135;28;20233;-66
2022/03/19 01:36:19;;;;;;;12.33;11.00;;;5.70;99.90;;;;;;5054325;28;20649;-64
2022/03/19 01:38:45;;;;;;;12.17;11.10;;;5.70;99.90;;;;;;5052867;28;20175;-64
2022/03/19 01:41:11;;;;;;;12.97;11.67;;;5.50;99.90;;;;;;5049499;28;20267;-66
2022/03/19 01:43:37;;;;;;;11.40;10.30;;;5.50;99.90;;;;;;5052274;28;20218;-64
2022/03/19 01:46:03;;;;;;;12.30;11.20;;;5.50;99.90;;;;;;5054123;28;20585;-65
2022/03/19 01:48:29;;;;;;;12.27;11.00;;;5.40;99.90;;;;;;5048773;28;20270;-64
2022/03/19 01:50:54;;;;;;;12.80;11.60;;;5.40;99.90;;;;;;5034087;28;20199;-65
2022/03/19 01:53:20;;;;;;;11.73;10.63;;;5.40;99.90;;;;;;5051125;28;20213;-64
2022/03/19 01:55:46;;;;;;;14.03;11.23;;;5.40;99.90;;;;;;5055633;28;20174;-65
2022/03/19 01:58:12;;;;;;;12.67;11.23;;;5.40;99.90;;;;;;5070071;28;20171;-64
2022/03/19 02:00:38;;;;;;;13.90;12.47;;;5.40;99.90;;;;;;5074084;28;20194;-64
2022/03/19 02:03:06;;;;;;;13.23;11.93;;;5.50;99.90;;;;;;5074041;28;20208;-65
2022/03/19 02:05:32;;;;;;;12.17;10.87;;;5.60;99.90;;;;;;5060230;28;20178;-64
2022/03/19 02:07:57;;;;;;;11.60;10.47;;;5.60;99.90;;;;;;5055345;28;20191;-64
2022/03/19 02:10:24;;;;;;;12.23;10.93;;;5.60;99.90;;;;;;5054272;28;20777;-64
2022/03/19 02:12:51;;;;;;;13.47;10.50;;;5.60;99.90;;;;;;5054220;28;20562;-64
2022/03/19 02:15:17;;;;;;;11.90;10.73;;;5.50;99.90;;;;;;5053536;28;20755;-63
2022/03/19 02:17:44;;;;;;;12.87;11.40;;;5.50;99.90;;;;;;5054073;28;20284;-64
2022/03/19 02:20:10;;;;;;;12.20;11.10;;;5.40;99.90;;;;;;5053740;28;20186;-63
2022/03/19 02:22:35;;;;;;;12.80;11.50;;;5.40;99.90;;;;;;5053848;28;20191;-63
2022/03/19 02:27:46;;;;;;;12.43;11.13;;;5.30;99.90;;;;;;5055142;28;20190;-64
2022/03/19 02:30:14;;;;;;;12.50;11.17;;;5.20;99.90;;;;;;5054839;28;20179;-64
2022/03/19 02:32:42;;;;;;;12.50;11.40;;;5.10;99.90;;;;;;5052445;28;20287;-63
2022/03/19 02:35:09;;;;;;;12.43;11.23;;;5.10;99.90;;;;;;5052725;28;20179;-63
2022/03/19 02:37:45;;;;;;;13.63;10.80;;;5.10;99.90;;;;;;5053523;28;20256;-64
2022/03/19 02:40:13;;;;;;;12.77;11.20;;;5.10;99.90;;;;;;5053645;28;20513;-64
2022/03/19 02:42:39;;;;;;;14.53;11.03;;;5.10;99.90;;;;;;5053119;28;20199;-64
2022/03/19 02:45:06;;;;;;;11.60;10.50;;;5.20;99.90;;;;;;5052591;28;20662;-64
2022/03/19 02:47:32;;;;;;;11.90;10.73;;;5.20;99.90;;;;;;5053155;28;20537;-64
2022/03/19 02:49:59;;;;;;;12.13;10.87;;;5.20;99.90;;;;;;5053042;28;20206;-64
2022/03/19 02:52:24;;;;;;;11.50;10.50;;;5.20;99.90;;;;;;5052737;28;20762;-64
2022/03/19 02:54:50;;;;;;;12.70;10.73;;;5.20;99.90;;;;;;5052806;28;20189;-64
2022/03/19 02:57:15;;;;;;;12.73;10.90;;;5.20;99.90;;;;;;5053220;28;20194;-64
2022/03/19 02:59:41;;;;;;;12.20;10.90;;;5.20;99.90;;;;;;5052707;28;20179;-64
2022/03/19 03:02:07;;;;;;;11.83;10.70;;;5.20;99.90;;;;;;5051941;28;20182;-63
2022/03/19 03:04:34;;;;;;;12.07;10.83;;;5.20;99.90;;;;;;5052014;28;20189;-63
2022/03/19 03:07:01;;;;;;;15.60;13.87;;;5.20;99.90;;;;;;5033201;28;20593;-64
2022/03/19 03:09:28;;;;;;;11.10;10.00;;;5.10;99.90;;;;;;5044854;28;20673;-64
2022/03/19 03:11:55;;;;;;;11.13;10.23;;;5.10;99.90;;;;;;5052616;28;20213;-64
2022/03/19 03:14:21;;;;;;;14.50;12.03;;;5.00;99.90;;;;;;5051569;28;20282;-63
2022/03/19 03:16:51;;;;;;;13.47;11.87;;;5.00;99.90;;;;;;5052197;28;20262;-64
2022/03/19 03:19:17;;;;;;;12.77;11.67;;;5.00;99.90;;;;;;5052806;28;20206;-63
2022/03/19 03:21:44;;;;;;;16.37;11.13;;;5.00;99.90;;;;;;5052170;28;20194;-64
2022/03/19 03:24:11;;;;;;;11.10;10.00;;;5.00;99.90;;;;;;5052068;28;20201;-63
2022/03/19 03:26:37;;;;;;;12.30;11.00;;;5.00;99.90;;;;;;5050131;28;20206;-63
2022/03/19 03:29:05;;;;;;;14.73;10.83;;;5.00;99.90;;;;;;5052145;28;20171;-63
2022/03/19 03:31:30;;;;;;;12.97;11.67;;;4.90;99.90;;;;;;5052098;28;20306;-64
2022/03/19 03:33:56;;;;;;;12.43;11.20;;;4.80;99.90;;;;;;5052470;28;20274;-63
2022/03/19 03:36:22;;;;;;;12.00;10.97;;;4.70;99.90;;;;;;5050202;28;20201;-64
2022/03/19 03:38:48;;;;;;;12.13;11.00;;;4.70;99.90;;;;;;5051022;28;20189;-62
2022/03/19 03:41:14;;;;;;;14.07;10.67;;;4.60;99.90;;;;;;5052158;28;20220;-65
2022/03/19 03:43:40;;;;;;;12.37;11.13;;;4.50;99.90;;;;;;5052006;28;20278;-62
2022/03/19 03:46:05;;;;;;;12.00;10.93;;;4.50;99.90;;;;;;5049376;28;20186;-62
2022/03/19 03:48:35;;;;;;;12.60;11.40;;;4.40;99.90;;;;;;5052137;28;20181;-64
2022/03/19 03:51:01;;;;;;;13.20;11.77;;;4.40;99.90;;;;;;5052111;28;20566;-65
2022/03/19 03:53:28;;;;;;;12.83;11.63;;;4.40;99.90;;;;;;5084574;23;20313;-67
2022/03/19 03:55:54;;;;;;;14.27;11.43;;;4.40;99.90;;;;;;5072668;28;20166;-67
2022/03/19 03:58:20;;;;;;;12.43;11.27;;;4.30;99.90;;;;;;5072353;28;20588;-65
2022/03/19 04:00:46;;;;;;;12.20;10.87;;;4.30;99.90;;;;;;5072692;28;20237;-68
2022/03/19 04:03:11;;;;;;;12.37;11.27;;;4.20;99.90;;;;;;5057158;28;20632;-67
2022/03/19 04:05:38;;;;;;;12.07;10.93;;;4.10;99.90;;;;;;5052659;28;20630;-66
2022/03/19 04:08:04;;;;;;;13.70;12.47;;;4.00;99.90;;;;;;5053119;28;20171;-68
2022/03/19 04:10:31;;;;;;;12.10;11.10;;;3.90;99.90;;;;;;5049933;28;20703;-67
2022/03/19 04:12:57;;;;;;;13.87;11.47;;;3.80;99.90;;;;;;5052819;28;20241;-67
2022/03/19 04:15:23;;;;;;;13.80;12.27;;;3.70;99.90;;;;;;5056901;28;20236;-64
2022/03/19 04:17:49;;;;;;;14.73;13.10;;;3.60;99.90;;;;;;5049973;28;20178;-62
2022/03/19 04:20:15;;;;;;;14.40;13.00;;;3.50;99.90;;;;;;5050002;28;20587;-62
2022/03/19 04:22:43;;;;;;;13.60;12.40;;;3.40;99.90;;;;;;5050918;28;20194;-62
2022/03/19 04:25:14;;;;;;;14.63;13.23;;;3.30;99.90;;;;;;5056642;28;20216;-62
2022/03/19 04:27:41;;;;;;;16.07;14.13;;;3.30;99.90;;;;;;5071081;28;20204;-63
2022/03/19 04:30:08;;;;;;;13.90;12.70;;;3.20;99.90;;;;;;5065741;28;20190;-62
2022/03/19 04:32:45;;;;;;;18.77;12.77;;;3.10;99.90;;;;;;5052703;28;20202;-62
2022/03/19 04:38:00;;;;;;;14.53;13.13;;;3.00;99.90;;;;;;5066390;28;20181;-62
2022/03/19 04:40:26;;;;;;;14.57;13.13;;;3.00;99.90;;;;;;5050748;28;20647;-62
2022/03/19 04:42:52;;;;;;;13.77;11.77;;;2.90;99.90;;;;;;5054094;28;20201;-62
2022/03/19 04:45:18;;;;;;;12.90;11.60;;;2.90;99.90;;;;;;5070566;28;20209;-62
2022/03/19 04:47:44;;;;;;;15.47;13.97;;;2.90;99.90;;;;;;5067332;28;20166;-62
2022/03/19 04:50:10;;;;;;;17.17;15.70;;;2.90;99.90;;;;;;5051240;28;20533;-62
2022/03/19 04:52:36;;;;;;;18.83;16.40;;;2.90;99.90;;;;;;5051282;28;20203;-62
2022/03/19 04:55:02;;;;;;;17.13;14.53;;;2.80;99.90;;;;;;5050718;28;20258;-62
2022/03/19 04:57:28;;;;;;;16.33;12.23;;;2.80;99.90;;;;;;5071888;28;20687;-62
2022/03/19 04:59:55;;;;;;;14.67;13.23;;;2.90;99.90;;;;;;5075008;28;20594;-61
2022/03/19 05:02:24;;;;;;;16.30;14.30;;;2.80;99.90;;;;;;5072853;28;20227;-61
2022/03/19 05:04:54;;;;;;;16.90;15.37;;;2.80;99.90;;;;;;5074624;28;20227;-62
2022/03/19 05:07:24;;;;;;;18.57;16.00;;;2.80;99.90;;;;;;5057988;28;20617;-63
2022/03/19 05:12:40;;;;;;;16.20;14.60;;;2.60;99.90;;;;;;5071759;28;20213;-62
2022/03/19 05:15:10;;;;;;;15.70;13.60;;;2.60;99.90;;;;;;5072627;28;20261;-63
2022/03/19 05:17:35;;;;;;;14.13;12.80;;;2.60;99.90;;;;;;5056310;28;20175;-62
2022/03/19 05:20:02;;;;;;;14.77;12.77;;;2.60;99.90;;;;;;5053747;28;20254;-62
2022/03/19 05:22:29;;;;;;;13.60;12.20;;;2.60;99.90;;;;;;5068839;28;20182;-62
2022/03/19 05:24:59;;;;;;;14.33;12.80;;;2.60;99.90;;;;;;5073772;28;20539;-62
2022/03/19 05:27:24;;;;;;;14.27;12.90;;;2.60;99.90;;;;;;5059651;28;20237;-63
2022/03/19 05:29:51;;;;;;;16.07;14.37;;;2.60;99.90;;;;;;5064976;28;20210;-62
2022/03/19 05:32:17;;;;;;;14.40;12.73;;;2.60;99.90;;;;;;5074001;28;20198;-63
2022/03/19 05:34:43;;;;;;;15.73;13.10;;;2.50;99.90;;;;;;5063677;28;20262;-62
2022/03/19 05:37:11;;;;;;;17.53;15.63;;;2.60;99.90;;;;;;5053929;28;20557;-62
2022/03/19 05:39:38;;;;;;;15.40;13.90;;;2.60;99.90;;;;;;5069324;28;20672;-63
2022/03/19 05:42:04;;;;;;;15.93;14.30;;;2.60;99.90;;;;;;5074411;28;20174;-63
2022/03/19 05:44:30;;;;;;;16.87;13.90;;;2.70;99.90;;;;;;5059435;28;20628;-63
2022/03/19 05:46:59;;;;;;;17.73;15.93;;;2.80;99.90;;;;;;5054249;28;20202;-63
2022/03/19 05:49:25;;;;;;;22.17;14.70;;;2.80;99.90;;;;;;5065774;28;20182;-62
2022/03/19 05:51:51;;;;;;;17.80;16.03;;;2.90;99.90;;;;;;5073669;28;20205;-62
2022/03/19 05:54:17;;;;;;;16.60;13.70;;;3.20;99.90;;;;;;5062525;28;20317;-62
2022/03/19 05:56:42;;;;;;;16.13;14.67;;;3.30;99.90;;;;;;5053692;28;20253;-62
2022/03/19 05:59:08;;;;;;;15.47;13.80;;;3.40;99.90;;;;;;5074114;28;20169;-62
2022/03/19 06:01:35;;;;;;;15.90;14.40;;;3.60;99.90;;;;;;5073124;28;20174;-62
2022/03/19 06:04:00;;;;;;;15.00;13.50;;;3.80;99.90;;;;;;5060903;28;20560;-61
2022/03/19 06:06:27;;;;;;;15.07;12.67;;;4.00;99.90;;;;;;5073011;28;20171;-61
2022/03/19 06:08:53;;;;;;;15.63;13.03;;;4.20;99.90;;;;;;5088253;28;20275;-60
2022/03/19 06:11:19;;;;;;;14.60;11.67;;;4.40;99.90;;;;;;5055678;28;20209;-62
2022/03/19 06:13:45;;;;;;;13.03;10.90;;;4.50;99.90;;;;;;5056815;28;20194;-63
2022/03/19 06:16:11;;;;;;;12.77;11.87;;;4.70;99.90;;;;;;5073387;28;20174;-63
2022/03/19 06:18:37;;;;;;;11.07;10.20;;;4.80;99.90;;;;;;5071638;28;20249;-62
2022/03/19 06:21:03;;;;;;;11.97;10.07;;;4.90;99.90;;;;;;5054273;28;20744;-63
2022/03/19 06:23:29;;;;;;;10.77;9.97;;;5.00;99.90;;;;;;5054675;28;20697;-64
2022/03/19 06:25:55;;;;;;;11.33;10.43;;;5.10;99.90;;;;;;5076061;28;20240;-63
2022/03/19 06:28:21;;;;;;;11.60;10.40;;;5.20;99.90;;;;;;5076460;28;20201;-62
2022/03/19 06:30:46;;;;;;;11.37;10.30;;;5.30;99.90;;;;;;5056067;28;20238;-63
2022/03/19 06:33:12;;;;;;;10.23;9.43;;;5.40;99.90;;;;;;5053531;28;20285;-63
2022/03/19 06:38:26;;;;;;;10.60;9.77;;;5.60;99.90;;;;;;5072972;28;20244;-63
2022/03/19 06:40:52;;;;;;;12.03;9.67;;;5.80;99.90;;;;;;5055221;28;20229;-62
2022/03/19 06:43:18;;;;;;;10.90;10.10;;;5.90;99.90;;;;;;5053237;28;20198;-63
2022/03/19 06:45:43;;;;;;;12.20;10.03;;;6.00;99.90;;;;;;5068129;28;20204;-63
2022/03/19 06:48:09;;;;;;;14.97;10.77;;;6.10;99.90;;;;;;5072840;28;20664;-63
2022/03/19 06:50:35;;;;;;;10.97;9.97;;;6.20;99.90;;;;;;5058712;28;20240;-63
2022/03/19 06:53:04;;;;;;;12.27;11.03;;;6.40;99.90;;;;;;5063072;28;20241;-63
2022/03/19 06:55:31;;;;;;;13.17;10.07;;;6.80;99.90;;;;;;5072268;28;20235;-63
2022/03/19 06:57:56;;;;;;;9.87;8.80;;;7.20;99.90;;;;;;5061439;28;20204;-63
2022/03/19 07:00:23;;;;;;;18.03;11.27;;;7.70;99.90;;;;;;5052392;28;20163;-63
2022/03/19 07:02:53;;;;;;;12.47;9.63;;;8.10;99.90;;;;;;5060360;28;20194;-63
2022/03/19 07:05:28;;;;;;;11.97;9.63;;;8.50;99.90;;;;;;5072442;28;20488;-63
2022/03/19 07:07:55;;;;;;;11.80;9.73;;;8.80;99.90;;;;;;5064236;28;20178;-64
2022/03/19 07:10:22;;;;;;;10.07;8.73;;;9.10;99.90;;;;;;5052810;28;20171;-63
2022/03/19 07:12:49;;;;;;;8.90;8.00;;;9.30;99.90;;;;;;5056988;28;20235;-63
2022/03/19 07:15:19;;;;;;;9.37;8.60;;;9.60;99.90;;;;;;5070848;28;20616;-63
2022/03/19 07:17:45;;;;;;;10.40;8.27;;;9.80;99.90;;;;;;5065638;28;20598;-63
2022/03/19 07:20:12;;;;;;;8.63;7.87;;;9.90;99.90;;;;;;5053730;28;20646;-63
2022/03/19 07:22:58;;;;;;;10.63;7.70;;;10.10;99.90;;;;;;5071477;28;20198;-63
2022/03/19 07:25:26;;;;;;;8.60;7.77;;;10.20;99.90;;;;;;5067591;28;20206;-63
2022/03/19 07:27:54;;;;;;;11.33;7.57;;;10.30;99.90;;;;;;5052045;28;20183;-63
2022/03/19 07:30:19;;;;;;;8.13;7.43;;;10.50;99.90;;;;;;5053971;28;20276;-63
2022/03/19 07:32:45;;;;;;;10.77;7.37;;;10.60;99.90;;;;;;5071920;28;20281;-63
2022/03/19 07:35:14;;;;;;;7.63;6.93;;;10.70;99.90;;;;;;5055116;28;20185;-63
2022/03/19 07:37:44;;;;;;;7.57;6.63;;;11.00;99.90;;;;;;5051733;28;20666;-63
2022/03/19 07:40:15;;;;;;;7.20;6.70;;;11.20;99.90;;;;;;5066836;28;20901;-63
2022/03/19 07:42:42;;;;;;;7.53;6.80;;;11.50;99.90;;;;;;5071426;28;20194;-63
2022/03/19 07:45:08;;;;;;;7.10;6.40;;;11.80;99.90;;;;;;5057209;28;20183;-63
2022/03/19 07:47:34;;;;;;;7.57;6.37;;;12.10;99.90;;;;;;5051399;28;20539;-64
2022/03/19 07:50:01;;;;;;;11.13;6.87;;;12.10;99.90;;;;;;5066674;28;20178;-63
2022/03/19 07:52:27;;;;;;;7.93;7.13;;;12.20;99.90;;;;;;5070883;28;20725;-65
2022/03/19 07:54:54;;;;;;;7.73;7.03;;;12.20;99.90;;;;;;5056623;28;20179;-64
2022/03/19 07:57:23;;;;;;;7.40;6.70;;;12.30;99.90;;;;;;5051519;28;20182;-64
2022/03/19 07:59:50;;;;;;;8.27;7.47;;;12.40;99.90;;;;;;5064686;28;20209;-64
2022/03/19 08:02:17;;;;;;;8.03;7.23;;;12.70;99.90;;;;;;5070811;28;20712;-63
2022/03/19 08:04:43;;;;;;;7.87;7.17;;;12.90;99.90;;;;;;5057833;28;20244;-64
2022/03/19 08:07:09;;;;;;;7.57;6.80;;;13.10;99.90;;;;;;5051671;28;20182;-65
2022/03/19 08:09:36;;;;;;;7.30;6.60;;;13.50;99.90;;;;;;5061522;28;20588;-64
2022/03/19 08:12:02;;;;;;;8.40;7.33;;;13.70;99.90;;;;;;5071572;28;20221;-64
2022/03/19 08:14:29;;;;;;;7.60;6.90;;;13.70;99.90;;;;;;5055321;28;20203;-65
2022/03/19 08:16:55;;;;;;;7.90;7.10;;;13.80;99.90;;;;;;5065647;28;20262;-64
2022/03/19 08:19:25;;;;;;;7.83;7.07;;;13.70;99.90;;;;;;5059970;28;20472;-63
2022/03/19 08:21:52;;;;;;;8.37;7.03;;;13.80;99.90;;;;;;5049578;28;20182;-64
2022/03/19 08:24:19;;;;;;;9.97;6.40;;;14.00;99.90;;;;;;5068310;28;20205;-64
2022/03/19 08:26:45;;;;;;;8.57;7.00;;;14.10;99.90;;;;;;5056579;28;20178;-64
2022/03/19 08:29:10;;;;;;;13.37;8.00;;;14.00;99.90;;;;;;5054201;28;20243;-64
2022/03/19 08:31:36;;;;;;;7.97;7.17;;;14.00;99.90;;;;;;5054058;28;20190;-64
2022/03/19 08:34:01;;;;;;;8.37;7.37;;;14.00;99.90;;;;;;5067441;28;20202;-64
2022/03/19 08:36:27;;;;;;;8.57;7.43;;;14.10;99.90;;;;;;5073298;28;20166;-64
2022/03/19 08:41:38;;;;;;;8.17;6.73;;;14.60;99.90;;;;;;5073514;28;20196;-64
2022/03/19 08:44:05;;;;;;;7.00;6.00;;;15.10;99.90;;;;;;5060422;28;20237;-64
2022/03/19 08:46:31;;;;;;;7.27;6.53;;;15.30;99.90;;;;;;5076297;28;20182;-64
2022/03/19 08:48:57;;;;;;;7.83;7.13;;;15.60;99.90;;;;;;5071547;28;20178;-64
2022/03/19 08:51:41;;;;;;;7.63;6.90;;;15.70;99.90;;;;;;5058944;28;20618;-64
2022/03/19 08:54:12;;;;;;;10.57;6.87;;;15.60;99.90;;;;;;5057134;28;20247;-63
2022/03/19 08:56:38;;;;;;;7.07;6.57;;;15.60;99.90;;;;;;5059690;28;20170;-64
2022/03/19 08:59:05;;;;;;;9.17;7.43;;;15.50;99.90;;;;;;5065495;28;20406;-63
2022/03/19 09:01:30;;;;;;;7.47;6.87;;;15.90;99.90;;;;;;5061108;28;20200;-63
2022/03/19 09:03:57;;;;;;;6.20;5.60;;;15.90;99.90;;;;;;5066252;28;20281;-64
2022/03/19 09:06:22;;;;;;;7.20;6.50;;;16.10;99.90;;;;;;5054430;28;20201;-64
2022/03/19 09:08:51;;;;;;;7.07;6.40;;;15.80;99.90;;;;;;5054376;28;20214;-62
2022/03/19 09:11:18;;;;;;;8.53;6.80;;;16.00;99.90;;;;;;5053730;28;20565;-64
2022/03/19 09:13:49;;;;;;;7.83;6.33;;;16.10;99.90;;;;;;5052946;28;20282;-64
2022/03/19 09:16:16;;;;;;;7.20;6.40;;;15.60;99.90;;;;;;5053867;28;20691;-64
2022/03/19 09:18:41;;;;;;;9.90;6.53;;;15.50;99.90;;;;;;5052990;28;20171;-64
2022/03/19 09:21:07;;;;;;;6.73;6.13;;;15.50;99.90;;;;;;5054196;28;20175;-64
2022/03/19 09:23:33;;;;;;;9.43;5.93;;;16.20;99.90;;;;;;5053313;28;20221;-64
2022/03/19 09:25:58;;;;;;;6.77;6.00;;;17.00;99.90;;;;;;5052872;28;20179;-64
2022/03/19 09:28:24;;;;;;;6.60;5.90;;;17.60;99.90;;;;;;5054265;28;20667;-64
2022/03/19 09:30:51;;;;;;;9.15;5.60;;;18.20;99.90;;;;;;5054328;28;20175;-64
2022/03/19 09:33:17;;;;;;;7.32;6.43;;;18.50;99.90;;;;;;5054252;28;20248;-64
2022/03/19 09:35:43;;;;;;;7.90;6.00;;;19.00;99.90;;;;;;5053652;28;20178;-64
2022/03/19 09:38:09;;;;;;;8.52;5.80;;;19.30;99.90;;;;;;5054876;28;20668;-64
2022/03/19 09:40:34;;;;;;;7.10;6.03;;;19.50;99.90;;;;;;5053606;28;20178;-64
2022/03/19 09:43:00;;;;;;;7.03;6.40;;;19.50;99.90;;;;;;5052788;28;20256;-64
2022/03/19 09:45:27;;;;;;;6.40;5.57;;;20.00;98.50;;;;;;5053641;28;20250;-64
2022/03/19 09:47:54;;;;;;;8.00;6.50;;;20.20;99.80;;;;;;5053999;28;20182;-64
2022/03/19 09:50:20;;;;;;;6.80;6.00;;;20.40;98.00;;;;;;5053847;28;20244;-64
2022/03/19 09:55:15;;;;;;;6.57;5.30;;;20.20;94.20;;;;;;5070581;28;20396;-66
2022/03/19 09:57:41;;;;;;;6.43;5.85;;;19.20;92.80;;;;;;5056404;28;20182;-65
2022/03/19 10:00:07;;;;;;;6.50;5.90;;;18.90;93.20;;;;;;5053838;28;20171;-66
2022/03/19 10:02:33;;;;;;;6.32;5.72;;;18.20;90.80;;;;;;5059878;28;20174;-65
2022/03/19 10:08:35;;;;;;;6.00;5.50;;;17.90;92.30;;;;;;5053741;28;20268;-65
2022/03/19 10:10:35;;;;;;;6.40;5.80;;;17.10;91.10;;;;;;5032512;28;20190;-66
2022/03/19 10:13:09;;;;;;;5.63;5.17;;;17.00;91.70;;;;;;5033955;28;20195;-65
2022/03/19 10:15:40;;;;;;;6.97;5.80;;;16.90;91.00;;;;;;5031295;28;20604;-65
2022/03/19 10:18:08;;;;;;;6.10;5.60;;;16.90;91.60;;;;;;5033685;28;20673;-66
2022/03/19 10:20:37;;;;;;;5.80;4.83;;;16.80;89.10;;;;;;5032597;28;20172;-66
2022/03/19 10:23:03;;;;;;;5.47;5.03;;;16.80;87.10;;;;;;5033380;28;20271;-66
2022/03/19 10:25:30;;;;;;;6.53;4.97;;;17.00;88.50;;;;;;5032327;28;20603;-66
2022/03/19 10:28:13;;;;;;;6.20;5.63;;;17.20;87.50;;;;;;5033679;28;20250;-66
2022/03/19 10:30:40;;;;;;;5.77;5.00;;;17.40;85.80;;;;;;5032812;28;20544;-66
2022/03/19 10:33:10;;;;;;;5.27;4.87;;;17.50;82.60;;;;;;5033120;28;20195;-66
2022/03/19 10:35:41;;;;;;;5.67;5.17;;;17.40;76.80;;;;;;5032668;28;20174;-66
2022/03/19 10:38:24;;;;;;;8.33;6.20;;;17.40;78.30;;;;;;5033112;28;20171;-65
2022/03/19 10:40:52;;;;;;;5.60;5.10;;;17.40;72.50;;;;;;5032232;28;20634;-65
2022/03/19 10:43:22;;;;;;;4.87;4.60;;;17.40;74.50;;;;;;5033033;28;20581;-66
2022/03/19 10:45:52;;;;;;;5.40;5.03;;;17.20;64.30;;;;;;5032695;28;20255;-66
2022/03/19 10:48:22;;;;;;;5.53;4.80;;;16.90;64.90;;;;;;5032990;28;20171;-65
2022/03/19 10:50:49;;;;;;;4.70;4.40;;;17.00;66.50;;;;;;5032923;28;20638;-65
2022/03/19 10:53:18;;;;;;;5.03;4.73;;;17.00;62.00;;;;;;5032512;28;20262;-65
2022/03/19 10:55:44;;;;;;;5.03;4.30;;;17.10;60.20;;;;;;5031862;28;20677;-64
2022/03/19 10:58:10;;;;;;;4.97;4.60;;;17.10;59.10;;;;;;5032744;28;20172;-66
2022/03/19 11:00:36;;;;;;;5.00;4.60;;;17.10;56.50;;;;;;5032424;28;20167;-64
2022/03/19 11:03:17;;;;;;;5.20;4.80;;;17.10;56.80;;;;;;5032577;28;20190;-65
2022/03/19 11:05:44;;;;;;;5.13;4.70;;;17.10;54.20;;;;;;5032321;28;20186;-66
2022/03/19 11:08:12;;;;;;;5.07;4.67;;;17.00;53.40;;;;;;5032758;28;20262;-64
2022/03/19 11:10:39;;;;;;;4.90;4.60;;;16.60;52.00;;;;;;5033413;28;20175;-65
2022/03/19 11:13:06;;;;;;;5.47;4.97;;;16.60;52.00;;;;;;5033632;28;20231;-65
2022/03/19 11:15:34;;;;;;;4.83;4.43;;;16.70;52.10;;;;;;5032018;28;20199;-64
2022/03/19 11:18:07;;;;;;;4.83;4.43;;;16.70;51.60;;;;;;5036040;28;20522;-65
2022/03/19 11:20:34;;;;;;;5.13;4.63;;;17.20;56.60;;;;;;5046902;28;20179;-65
2022/03/19 11:23:01;;;;;;;4.73;4.43;;;17.60;54.00;;;;;;5046902;28;20195;-65
2022/03/19 11:25:37;;;;;;;4.43;4.13;;;17.80;54.10;;;;;;5030996;28;20179;-68
2022/03/19 11:28:07;;;;;;;5.07;4.70;;;17.70;53.90;;;;;;5031862;28;20179;-65
2022/03/19 11:30:40;;;;;;;4.90;4.50;;;18.00;53.40;;;;;;5031532;28;20175;-66
2022/03/19 11:33:15;;;;;;;4.80;4.40;;;18.30;53.90;;;;;;5031683;28;20693;-65
2022/03/19 11:35:46;;;;;;;4.80;4.40;;;18.20;54.00;;;;;;5032510;28;20580;-66
2022/03/19 11:38:20;;;;;;;4.60;4.20;;;18.20;55.70;;;;;;5032136;28;20167;-65
2022/03/19 11:40:54;;;;;;;6.77;4.83;;;18.50;57.50;;;;;;5050865;28;20312;-66
2022/03/19 11:43:31;;;;;;;6.18;5.00;;;18.80;56.90;;;;;;5051706;28;20533;-66
2022/03/19 11:46:04;;;;;;;4.80;4.50;;;19.20;59.60;;;;;;5031430;28;20168;-65
2022/03/19 11:48:36;;;;;;;5.18;4.05;;;19.40;55.00;;;;;;5031589;28;20540;-66
2022/03/19 11:51:19;;;;;;;4.80;4.50;;;19.10;54.50;;;;;;5032031;28;20195;-65
2022/03/19 11:53:58;;;;;;;5.10;4.70;;;19.40;55.90;;;;;;5031723;28;20858;-66
2022/03/19 11:56:26;;;;;;;4.70;4.30;;;19.60;54.00;;;;;;5031390;28;20241;-66
2022/03/19 11:58:53;;;;;;;6.35;4.75;;;19.60;57.70;;;;;;5033599;28;20544;-66
2022/03/19 12:01:55;;;;;;;4.97;4.53;;;19.30;53.60;;;;;;5051533;28;20610;-66
2022/03/19 12:04:22;;;;;;;4.77;4.47;;;18.80;52.90;;;;;;5045433;28;20187;-64
2022/03/19 12:06:55;;;;;;;5.20;4.80;;;18.20;52.50;;;;;;5030966;28;20286;-65
2022/03/19 12:09:53;;;;;;;5.20;4.90;;;17.90;52.00;;;;;;5036313;28;20171;-65
2022/03/19 12:12:25;;;;;;;4.90;4.60;;;17.70;53.90;;;;;;5043152;28;20242;-65
2022/03/19 12:14:51;;;;;;;5.50;5.00;;;17.40;49.30;;;;;;5042330;28;20550;-65
2022/03/19 12:17:21;;;;;;;4.63;4.33;;;17.30;51.10;;;;;;5031703;28;20183;-66
2022/03/19 12:19:49;;;;;;;5.00;4.60;;;17.30;47.10;;;;;;5034235;28;20206;-65
2022/03/19 12:22:28;;;;;;;4.60;4.30;;;17.20;47.70;;;;;;5039599;28;20183;-65
2022/03/19 12:25:04;;;;;;;5.00;4.60;;;17.30;45.40;;;;;;5030877;28;20191;-66
2022/03/19 12:27:29;;;;;;;4.43;4.20;;;17.00;45.80;;;;;;5039026;28;20215;-66
2022/03/19 12:29:58;;;;;;;4.70;4.40;;;17.10;45.20;;;;;;5051088;28;20256;-66
2022/03/19 12:32:24;;;;;;;4.80;4.50;;;17.10;43.30;;;;;;5049550;28;20558;-66
2022/03/19 12:35:00;;;;;;;5.07;4.60;;;17.10;43.50;;;;;;5050873;28;20196;-66
2022/03/19 12:37:26;;;;;;;4.93;4.53;;;16.80;43.40;;;;;;5044676;28;20542;-68
2022/03/19 12:40:01;;;;;;;5.37;4.30;;;16.50;42.80;;;;;;5031104;28;20187;-67
2022/03/19 12:42:33;;;;;;;4.80;4.50;;;16.30;41.90;;;;;;5036857;28;20173;-65
2022/03/19 12:45:03;;;;;;;4.53;4.23;;;16.40;42.50;;;;;;5050968;28;20329;-65
2022/03/19 12:47:29;;;;;;;4.30;4.10;;;16.10;42.10;;;;;;5050466;28;20182;-65
2022/03/19 12:49:55;;;;;;;4.90;4.60;;;16.40;42.10;;;;;;5051506;28;20538;-65
2022/03/19 12:52:21;;;;;;;4.40;4.20;;;16.50;44.40;;;;;;5045596;28;20206;-65
2022/03/19 12:54:50;;;;;;;4.70;4.40;;;16.80;42.30;;;;;;5030171;28;20219;-65
2022/03/19 12:57:25;;;;;;;4.63;4.37;;;16.90;44.00;;;;;;5035385;28;20179;-64
2022/03/19 12:59:54;;;;;;;5.27;4.87;;;16.70;39.70;;;;;;5051129;28;20174;-64
2022/03/19 13:02:21;;;;;;;4.80;4.50;;;16.50;40.70;;;;;;5045577;28;20172;-65
2022/03/19 13:04:47;;;;;;;4.70;4.40;;;16.50;40.80;;;;;;5030386;28;20492;-64